sensor_id;sensor_type;location;lat;lon;timestamp;temperature;humidity
25741;DHT22;13592;50.838;4.412;2022-09-27T00:00:34;12.50;99.90
25741;DHT22;13592;50.838;4.412;2022-09-27T00:03:01;12.50;99.90
25741;DHT22;13592;50.838;4.412;2022-09-27T00:07:59;12.50;99.90
25741;DHT22;13592;50.838;4.412;2022-09-27T00:10:26;12.40;99.90
25741;DHT22;13592;50.838;4.412;2022-09-27T00:12:56;12.20;99.90
25741;DHT22;13592;50.838;4.412;2022-09-27T00:15:24;12.40;99.90
25741;DHT22;13592;50.838;4.412;2022-09-27T00:18:06;12.40;99.90
25741;DHT22;13592;50.838;4.412;2022-09-27T00:20:44;12.30;99.90
25741;DHT22;13592;50.838;4.412;2022-09-27T00:23:16;12.20;99.90
25741;DHT22;13592;50.838;4.412;2022-09-27T00:31:35;12.40;99.90
25741;DHT22;13592;50.838;4.412;2022-09-27T00:34:09;12.50;99.90
25741;DHT22;13592;50.838;4.412;2022-09-27T00:36:39;12.60;99.90
25741;DHT22;13592;50.838;4.412;2022-09-27T00:39:06;12.50;99.90
25741;DHT22;13592;50.838;4.412;2022-09-27T00:41:46;12.40;99.90
25741;DHT22;13592;50.838;4.412;2022-09-27T00:46:59;12.30;99.90
25741;DHT22;13592;50.838;4.412;2022-09-27T00:49:27;12.40;99.90
25741;DHT22;13592;50.838;4.412;2022-09-27T00:51:58;12.30;99.90
25741;DHT22;13592;50.838;4.412;2022-09-27T00:54:43;12.30;99.90
25741;DHT22;13592;50.838;4.412;2022-09-27T00:57:11;12.30;99.90
25741;DHT22;13592;50.838;4.412;2022-09-27T00:59:51;12.40;99.90
25741;DHT22;13592;50.838;4.412;2022-09-27T01:02:19;12.30;99.90
25741;DHT22;13592;50.838;4.412;2022-09-27T01:07:17;12.30;99.90
25741;DHT22;13592;50.838;4.412;2022-09-27T01:09:44;12.20;99.90
25741;DHT22;13592;50.838;4.412;2022-09-27T01:12:22;12.30;99.90
25741;DHT22;13592;50.838;4.412;2022-09-27T01:15:13;12.30;99.90
25741;DHT22;13592;50.838;4.412;2022-09-27T01:20:31;12.30;99.90
25741;DHT22;13592;50.838;4.412;2022-09-27T01:33:38;12.20;99.90
25741;DHT22;13592;50.838;4.412;2022-09-27T01:36:15;12.20;99.90
25741;DHT22;13592;50.838;4.412;2022-09-27T01:56:01;12.10;99.90
25741;DHT22;13592;50.838;4.412;2022-09-27T01:59:09;11.90;99.90
25741;DHT22;13592;50.838;4.412;2022-09-27T02:02:11;12.10;99.90
25741;DHT22;13592;50.838;4.412;2022-09-27T02:10:38;12.00;99.90
25741;DHT22;13592;50.838;4.412;2022-09-27T02:24:57;12.10;99.90
25741;DHT22;13592;50.838;4.412;2022-09-27T02:36:24;12.10;99.90
25741;DHT22;13592;50.838;4.412;2022-09-27T02:38:49;12.10;99.90
25741;DHT22;13592;50.838;4.412;2022-09-27T02:41:22;12.10;99.90
25741;DHT22;13592;50.838;4.412;2022-09-27T02:44:07;12.00;99.90
25741;DHT22;13592;50.838;4.412;2022-09-27T02:49:29;11.90;99.90
25741;DHT22;13592;50.838;4.412;2022-09-27T02:54:39;12.00;99.90
25741;DHT22;13592;50.838;4.412;2022-09-27T03:00:11;11.90;99.90
25741;DHT22;13592;50.838;4.412;2022-09-27T03:02:50;11.80;99.90
25741;DHT22;13592;50.838;4.412;2022-09-27T03:05:20;11.90;99.90
25741;DHT22;13592;50.838;4.412;2022-09-27T03:07:47;12.00;99.90
25741;DHT22;13592;50.838;4.412;2022-09-27T03:16:44;11.80;99.90
25741;DHT22;13592;50.838;4.412;2022-09-27T03:19:10;11.80;99.90
25741;DHT22;13592;50.838;4.412;2022-09-27T03:21:37;11.70;99.90
25741;DHT22;13592;50.838;4.412;2022-09-27T03:26:51;11.80;99.90
25741;DHT22;13592;50.838;4.412;2022-09-27T03:31:51;11.80;99.90
25741;DHT22;13592;50.838;4.412;2022-09-27T03:34:18;11.80;99.90
25741;DHT22;13592;50.838;4.412;2022-09-27T03:36:46;11.80;99.90
25741;DHT22;13592;50.838;4.412;2022-09-27T03:39:13;11.80;99.90
25741;DHT22;13592;50.838;4.412;2022-09-27T03:41:46;11.70;99.90
25741;DHT22;13592;50.838;4.412;2022-09-27T03:44:33;11.80;99.90
25741;DHT22;13592;50.838;4.412;2022-09-27T03:46:58;11.90;99.90
25741;DHT22;13592;50.838;4.412;2022-09-27T03:49:24;12.00;99.90
25741;DHT22;13592;50.838;4.412;2022-09-27T03:51:50;12.10;99.90
25741;DHT22;13592;50.838;4.412;2022-09-27T03:56:47;12.00;99.90
25741;DHT22;13592;50.838;4.412;2022-09-27T03:59:22;12.10;99.90
25741;DHT22;13592;50.838;4.412;2022-09-27T04:01:48;12.10;99.90
25741;DHT22;13592;50.838;4.412;2022-09-27T04:04:16;12.00;99.90
25741;DHT22;13592;50.838;4.412;2022-09-27T04:06:45;11.90;99.90
25741;DHT22;13592;50.838;4.412;2022-09-27T04:09:12;11.90;99.90
25741;DHT22;13592;50.838;4.412;2022-09-27T04:11:41;11.80;99.90
25741;DHT22;13592;50.838;4.412;2022-09-27T04:14:10;11.80;99.90
25741;DHT22;13592;50.838;4.412;2022-09-27T04:16:40;11.70;99.90
25741;DHT22;13592;50.838;4.412;2022-09-27T04:25:08;11.60;99.90
25741;DHT22;13592;50.838;4.412;2022-09-27T04:28:03;11.70;99.90
25741;DHT22;13592;50.838;4.412;2022-09-27T04:30:34;12.10;99.90
25741;DHT22;13592;50.838;4.412;2022-09-27T04:33:16;12.00;99.90
25741;DHT22;13592;50.838;4.412;2022-09-27T04:41:26;12.10;99.90
25741;DHT22;13592;50.838;4.412;2022-09-27T04:43:59;11.90;99.90
25741;DHT22;13592;50.838;4.412;2022-09-27T04:50:00;11.80;99.90
25741;DHT22;13592;50.838;4.412;2022-09-27T04:52:25;11.70;99.90
25741;DHT22;13592;50.838;4.412;2022-09-27T04:54:54;11.80;99.90
25741;DHT22;13592;50.838;4.412;2022-09-27T04:57:20;11.90;99.90
25741;DHT22;13592;50.838;4.412;2022-09-27T04:59:49;11.70;99.90
25741;DHT22;13592;50.838;4.412;2022-09-27T05:02:22;11.70;99.90
25741;DHT22;13592;50.838;4.412;2022-09-27T05:04:52;11.80;99.90
25741;DHT22;13592;50.838;4.412;2022-09-27T05:07:19;11.80;99.90
25741;DHT22;13592;50.838;4.412;2022-09-27T05:09:49;11.70;99.90
25741;DHT22;13592;50.838;4.412;2022-09-27T05:12:23;11.60;99.90
25741;DHT22;13592;50.838;4.412;2022-09-27T05:14:51;11.50;99.90
25741;DHT22;13592;50.838;4.412;2022-09-27T05:17:19;11.70;99.90
25741;DHT22;13592;50.838;4.412;2022-09-27T05:19:49;11.60;99.90
25741;DHT22;13592;50.838;4.412;2022-09-27T05:24:46;11.50;99.90
25741;DHT22;13592;50.838;4.412;2022-09-27T05:27:21;11.40;99.90
25741;DHT22;13592;50.838;4.412;2022-09-27T05:32:17;11.40;99.90
25741;DHT22;13592;50.838;4.412;2022-09-27T05:38:04;11.40;99.90
25741;DHT22;13592;50.838;4.412;2022-09-27T05:40:46;11.30;99.90
25741;DHT22;13592;50.838;4.412;2022-09-27T05:43:18;11.50;99.90
25741;DHT22;13592;50.838;4.412;2022-09-27T05:45:44;11.60;99.90
25741;DHT22;13592;50.838;4.412;2022-09-27T05:48:12;11.60;99.90
25741;DHT22;13592;50.838;4.412;2022-09-27T05:50:40;11.40;99.90
25741;DHT22;13592;50.838;4.412;2022-09-27T05:53:06;11.50;99.90
25741;DHT22;13592;50.838;4.412;2022-09-27T05:55:34;11.60;99.90
25741;DHT22;13592;50.838;4.412;2022-09-27T06:00:34;11.30;99.90
25741;DHT22;13592;50.838;4.412;2022-09-27T06:03:05;11.10;99.90
25741;DHT22;13592;50.838;4.412;2022-09-27T06:05:36;11.20;99.90
25741;DHT22;13592;50.838;4.412;2022-09-27T06:08:08;11.30;99.90
25741;DHT22;13592;50.838;4.412;2022-09-27T06:18:59;11.60;99.90
25741;DHT22;13592;50.838;4.412;2022-09-27T06:24:30;11.60;99.90
25741;DHT22;13592;50.838;4.412;2022-09-27T06:27:04;11.60;99.90
25741;DHT22;13592;50.838;4.412;2022-09-27T06:32:21;11.40;99.90
25741;DHT22;13592;50.838;4.412;2022-09-27T06:37:50;11.50;99.90
25741;DHT22;13592;50.838;4.412;2022-09-27T06:40:20;11.50;99.90
25741;DHT22;13592;50.838;4.412;2022-09-27T06:42:47;11.50;99.90
25741;DHT22;13592;50.838;4.412;2022-09-27T06:45:23;11.50;99.90
25741;DHT22;13592;50.838;4.412;2022-09-27T06:48:01;11.60;99.90
25741;DHT22;13592;50.838;4.412;2022-09-27T06:50:46;11.60;99.90
25741;DHT22;13592;50.838;4.412;2022-09-27T06:53:14;11.50;99.90
25741;DHT22;13592;50.838;4.412;2022-09-27T06:58:17;11.60;99.90
25741;DHT22;13592;50.838;4.412;2022-09-27T07:04:09;11.70;99.90
25741;DHT22;13592;50.838;4.412;2022-09-27T07:06:36;11.60;99.90
25741;DHT22;13592;50.838;4.412;2022-09-27T07:09:08;11.50;99.90
25741;DHT22;13592;50.838;4.412;2022-09-27T07:11:36;11.50;99.90
25741;DHT22;13592;50.838;4.412;2022-09-27T07:16:33;11.60;99.90
25741;DHT22;13592;50.838;4.412;2022-09-27T07:19:01;11.60;99.90
25741;DHT22;13592;50.838;4.412;2022-09-27T07:21:29;11.70;99.90
25741;DHT22;13592;50.838;4.412;2022-09-27T07:26:26;11.70;99.90
25741;DHT22;13592;50.838;4.412;2022-09-27T07:28:54;11.60;99.90
25741;DHT22;13592;50.838;4.412;2022-09-27T07:31:25;11.50;99.90
25741;DHT22;13592;50.838;4.412;2022-09-27T07:38:49;11.70;99.90
25741;DHT22;13592;50.838;4.412;2022-09-27T07:41:21;12.00;99.90
25741;DHT22;13592;50.838;4.412;2022-09-27T07:43:47;12.00;99.90
25741;DHT22;13592;50.838;4.412;2022-09-27T07:46:14;12.00;99.90
25741;DHT22;13592;50.838;4.412;2022-09-27T07:48:40;11.80;99.90
25741;DHT22;13592;50.838;4.412;2022-09-27T07:57:00;11.90;99.90
25741;DHT22;13592;50.838;4.412;2022-09-27T07:59:30;11.90;99.90
25741;DHT22;13592;50.838;4.412;2022-09-27T08:01:58;12.00;99.90
25741;DHT22;13592;50.838;4.412;2022-09-27T08:04:23;12.00;99.90
25741;DHT22;13592;50.838;4.412;2022-09-27T08:06:54;12.10;99.90
25741;DHT22;13592;50.838;4.412;2022-09-27T08:09:21;12.20;99.90
25741;DHT22;13592;50.838;4.412;2022-09-27T08:11:58;12.20;99.90
25741;DHT22;13592;50.838;4.412;2022-09-27T08:14:31;12.20;99.90
25741;DHT22;13592;50.838;4.412;2022-09-27T08:17:00;12.20;99.90
25741;DHT22;13592;50.838;4.412;2022-09-27T08:19:26;12.10;99.90
25741;DHT22;13592;50.838;4.412;2022-09-27T08:21:54;12.10;99.90
25741;DHT22;13592;50.838;4.412;2022-09-27T08:24:20;12.10;99.90
25741;DHT22;13592;50.838;4.412;2022-09-27T08:26:46;12.20;99.90
25741;DHT22;13592;50.838;4.412;2022-09-27T08:31:45;12.20;99.90
25741;DHT22;13592;50.838;4.412;2022-09-27T08:34:14;12.40;99.90
25741;DHT22;13592;50.838;4.412;2022-09-27T08:36:42;12.40;99.90
25741;DHT22;13592;50.838;4.412;2022-09-27T08:39:11;12.50;99.90
25741;DHT22;13592;50.838;4.412;2022-09-27T08:44:10;12.40;99.90
25741;DHT22;13592;50.838;4.412;2022-09-27T08:51:56;12.10;99.90
25741;DHT22;13592;50.838;4.412;2022-09-27T08:54:43;12.30;99.90
25741;DHT22;13592;50.838;4.412;2022-09-27T08:57:25;12.20;99.90
25741;DHT22;13592;50.838;4.412;2022-09-27T09:02:25;12.10;99.90
25741;DHT22;13592;50.838;4.412;2022-09-27T09:04:55;12.20;99.90
25741;DHT22;13592;50.838;4.412;2022-09-27T09:07:29;12.20;99.90
25741;DHT22;13592;50.838;4.412;2022-09-27T09:13:17;12.10;99.90
25741;DHT22;13592;50.838;4.412;2022-09-27T09:21:03;11.70;99.90
25741;DHT22;13592;50.838;4.412;2022-09-27T09:31:45;11.80;99.90
25741;DHT22;13592;50.838;4.412;2022-09-27T09:34:25;11.70;99.90
25741;DHT22;13592;50.838;4.412;2022-09-27T09:36:54;11.80;99.90
25741;DHT22;13592;50.838;4.412;2022-09-27T09:50:24;12.20;99.90
25741;DHT22;13592;50.838;4.412;2022-09-27T09:58:46;12.40;99.90
25741;DHT22;13592;50.838;4.412;2022-09-27T10:06:56;12.40;99.90
25741;DHT22;13592;50.838;4.412;2022-09-27T10:09:25;12.50;99.90
25741;DHT22;13592;50.838;4.412;2022-09-27T10:12:01;12.40;99.90
25741;DHT22;13592;50.838;4.412;2022-09-27T10:14:29;12.60;99.90
25741;DHT22;13592;50.838;4.412;2022-09-27T10:17:08;12.80;99.90
25741;DHT22;13592;50.838;4.412;2022-09-27T10:19:36;13.00;99.90
25741;DHT22;13592;50.838;4.412;2022-09-27T10:24:58;13.40;99.90
25741;DHT22;13592;50.838;4.412;2022-09-27T10:30:31;13.60;99.90
25741;DHT22;13592;50.838;4.412;2022-09-27T10:35:55;13.70;99.90
25741;DHT22;13592;50.838;4.412;2022-09-27T10:38:35;13.50;99.90
25741;DHT22;13592;50.838;4.412;2022-09-27T10:43:49;13.50;99.90
25741;DHT22;13592;50.838;4.412;2022-09-27T10:46:17;13.70;99.90
25741;DHT22;13592;50.838;4.412;2022-09-27T10:48:47;13.70;99.90
25741;DHT22;13592;50.838;4.412;2022-09-27T10:51:32;13.80;99.90
25741;DHT22;13592;50.838;4.412;2022-09-27T10:54:28;13.80;99.90
25741;DHT22;13592;50.838;4.412;2022-09-27T11:02:20;13.60;99.90
25741;DHT22;13592;50.838;4.412;2022-09-27T11:05:03;13.70;99.90
25741;DHT22;13592;50.838;4.412;2022-09-27T11:10:29;13.90;99.90
25741;DHT22;13592;50.838;4.412;2022-09-27T11:13:13;13.90;99.90
25741;DHT22;13592;50.838;4.412;2022-09-27T11:16:03;14.20;99.90
25741;DHT22;13592;50.838;4.412;2022-09-27T11:32:40;13.40;99.90
25741;DHT22;13592;50.838;4.412;2022-09-27T12:09:29;14.20;99.90
25741;DHT22;13592;50.838;4.412;2022-09-27T12:14:59;14.00;99.90
25741;DHT22;13592;50.838;4.412;2022-09-27T12:17:37;13.70;99.90
25741;DHT22;13592;50.838;4.412;2022-09-27T12:20:30;13.80;99.90
25741;DHT22;13592;50.838;4.412;2022-09-27T12:26:04;14.10;99.90
25741;DHT22;13592;50.838;4.412;2022-09-27T12:31:53;14.10;99.90
25741;DHT22;13592;50.838;4.412;2022-09-27T12:40:24;14.20;99.90
25741;DHT22;13592;50.838;4.412;2022-09-27T12:57:34;14.60;99.90
25741;DHT22;13592;50.838;4.412;2022-09-27T13:00:17;14.50;99.90
25741;DHT22;13592;50.838;4.412;2022-09-27T13:13:46;14.00;99.90
25741;DHT22;13592;50.838;4.412;2022-09-27T13:16:42;13.90;99.90
25741;DHT22;13592;50.838;4.412;2022-09-27T13:24:58;13.80;99.90
25741;DHT22;13592;50.838;4.412;2022-09-27T13:27:34;13.90;99.90
25741;DHT22;13592;50.838;4.412;2022-09-27T13:32:34;14.30;99.90
25741;DHT22;13592;50.838;4.412;2022-09-27T13:46:20;14.30;99.90
25741;DHT22;13592;50.838;4.412;2022-09-27T13:48:58;14.50;99.90
25741;DHT22;13592;50.838;4.412;2022-09-27T13:53:56;14.70;99.90
25741;DHT22;13592;50.838;4.412;2022-09-27T13:59:19;14.50;99.90
25741;DHT22;13592;50.838;4.412;2022-09-27T14:04:40;14.40;99.90
25741;DHT22;13592;50.838;4.412;2022-09-27T14:07:12;14.40;99.90
25741;DHT22;13592;50.838;4.412;2022-09-27T14:09:46;14.50;99.90
25741;DHT22;13592;50.838;4.412;2022-09-27T14:15:19;14.60;99.90
25741;DHT22;13592;50.838;4.412;2022-09-27T14:17:48;14.60;99.90
25741;DHT22;13592;50.838;4.412;2022-09-27T14:26:17;14.70;99.90
25741;DHT22;13592;50.838;4.412;2022-09-27T14:28:59;14.60;99.90
25741;DHT22;13592;50.838;4.412;2022-09-27T14:31:38;14.60;99.90
25741;DHT22;13592;50.838;4.412;2022-09-27T14:34:05;14.90;99.90
25741;DHT22;13592;50.838;4.412;2022-09-27T14:36:34;14.90;99.90
25741;DHT22;13592;50.838;4.412;2022-09-27T14:39:23;14.90;99.90
25741;DHT22;13592;50.838;4.412;2022-09-27T14:41:53;14.70;99.90
25741;DHT22;13592;50.838;4.412;2022-09-27T14:44:22;14.70;99.90
25741;DHT22;13592;50.838;4.412;2022-09-27T14:52:53;14.60;99.90
25741;DHT22;13592;50.838;4.412;2022-09-27T14:55:45;14.60;99.90
25741;DHT22;13592;50.838;4.412;2022-09-27T14:58:33;14.60;99.90
25741;DHT22;13592;50.838;4.412;2022-09-27T15:07:04;13.80;99.90
25741;DHT22;13592;50.838;4.412;2022-09-27T15:12:36;13.50;99.90
25741;DHT22;13592;50.838;4.412;2022-09-27T15:15:32;13.40;99.90
25741;DHT22;13592;50.838;4.412;2022-09-27T15:17:58;13.40;99.90
25741;DHT22;13592;50.838;4.412;2022-09-27T15:20:32;13.50;99.90
25741;DHT22;13592;50.838;4.412;2022-09-27T15:23:00;13.70;99.90
25741;DHT22;13592;50.838;4.412;2022-09-27T15:25:34;13.60;99.90
25741;DHT22;13592;50.838;4.412;2022-09-27T15:28:05;13.60;99.90
25741;DHT22;13592;50.838;4.412;2022-09-27T15:33:23;13.60;99.90
25741;DHT22;13592;50.838;4.412;2022-09-27T15:38:56;13.80;99.90
25741;DHT22;13592;50.838;4.412;2022-09-27T15:41:58;13.70;99.90
25741;DHT22;13592;50.838;4.412;2022-09-27T15:52:47;13.90;99.90
25741;DHT22;13592;50.838;4.412;2022-09-27T15:55:20;13.70;99.90
25741;DHT22;13592;50.838;4.412;2022-09-27T16:01:03;13.70;99.90
25741;DHT22;13592;50.838;4.412;2022-09-27T16:03:33;13.70;99.90
25741;DHT22;13592;50.838;4.412;2022-09-27T16:06:00;13.90;99.90
25741;DHT22;13592;50.838;4.412;2022-09-27T16:08:29;14.00;99.90
25741;DHT22;13592;50.838;4.412;2022-09-27T16:10:59;14.00;99.90
25741;DHT22;13592;50.838;4.412;2022-09-27T16:16:28;13.40;99.90
25741;DHT22;13592;50.838;4.412;2022-09-27T16:18:57;13.50;99.90
25741;DHT22;13592;50.838;4.412;2022-09-27T16:24:10;13.40;99.90
25741;DHT22;13592;50.838;4.412;2022-09-27T16:26:43;13.50;99.90
25741;DHT22;13592;50.838;4.412;2022-09-27T16:29:12;13.80;99.90
25741;DHT22;13592;50.838;4.412;2022-09-27T16:31:41;14.10;99.90
25741;DHT22;13592;50.838;4.412;2022-09-27T16:34:38;14.40;99.90
25741;DHT22;13592;50.838;4.412;2022-09-27T16:37:04;14.10;99.90
25741;DHT22;13592;50.838;4.412;2022-09-27T16:42:16;14.10;99.90
25741;DHT22;13592;50.838;4.412;2022-09-27T16:44:44;14.10;99.90
25741;DHT22;13592;50.838;4.412;2022-09-27T16:47:20;14.00;99.90
25741;DHT22;13592;50.838;4.412;2022-09-27T16:53:16;13.80;99.90
25741;DHT22;13592;50.838;4.412;2022-09-27T16:58:51;13.60;99.90
25741;DHT22;13592;50.838;4.412;2022-09-27T17:01:26;13.60;99.90
25741;DHT22;13592;50.838;4.412;2022-09-27T17:03:54;13.60;99.90
25741;DHT22;13592;50.838;4.412;2022-09-27T17:16:02;13.30;99.90
25741;DHT22;13592;50.838;4.412;2022-09-27T17:21:18;13.50;99.90
25741;DHT22;13592;50.838;4.412;2022-09-27T17:26:49;13.50;99.90
25741;DHT22;13592;50.838;4.412;2022-09-27T17:32:05;13.40;99.90
25741;DHT22;13592;50.838;4.412;2022-09-27T17:34:51;13.30;99.90
25741;DHT22;13592;50.838;4.412;2022-09-27T17:37:27;13.20;99.90
25741;DHT22;13592;50.838;4.412;2022-09-27T17:39:56;13.10;99.90
25741;DHT22;13592;50.838;4.412;2022-09-27T17:42:31;13.20;99.90
25741;DHT22;13592;50.838;4.412;2022-09-27T17:45:10;13.20;99.90
25741;DHT22;13592;50.838;4.412;2022-09-27T17:47:43;13.20;99.90
25741;DHT22;13592;50.838;4.412;2022-09-27T17:50:39;13.30;99.90
25741;DHT22;13592;50.838;4.412;2022-09-27T17:53:04;13.40;99.90
25741;DHT22;13592;50.838;4.412;2022-09-27T17:55:30;13.60;99.90
25741;DHT22;13592;50.838;4.412;2022-09-27T17:58:00;13.60;99.90
25741;DHT22;13592;50.838;4.412;2022-09-27T18:00:43;13.60;99.90
25741;DHT22;13592;50.838;4.412;2022-09-27T18:09:12;13.50;99.90
25741;DHT22;13592;50.838;4.412;2022-09-27T18:17:45;13.10;99.90
25741;DHT22;13592;50.838;4.412;2022-09-27T18:20:20;13.30;99.90
25741;DHT22;13592;50.838;4.412;2022-09-27T18:23:06;13.10;99.90
25741;DHT22;13592;50.838;4.412;2022-09-27T18:25:59;12.90;99.90
25741;DHT22;13592;50.838;4.412;2022-09-27T18:31:09;12.60;99.90
25741;DHT22;13592;50.838;4.412;2022-09-27T18:36:47;12.40;99.90
25741;DHT22;13592;50.838;4.412;2022-09-27T18:39:21;12.60;99.90
25741;DHT22;13592;50.838;4.412;2022-09-27T18:41:50;12.40;99.90
25741;DHT22;13592;50.838;4.412;2022-09-27T18:47:20;12.10;99.90
25741;DHT22;13592;50.838;4.412;2022-09-27T18:50:29;12.00;99.90
25741;DHT22;13592;50.838;4.412;2022-09-27T18:56:09;12.10;99.90
25741;DHT22;13592;50.838;4.412;2022-09-27T19:04:24;12.00;99.90
25741;DHT22;13592;50.838;4.412;2022-09-27T19:07:07;11.90;99.90
25741;DHT22;13592;50.838;4.412;2022-09-27T19:09:33;11.90;99.90
25741;DHT22;13592;50.838;4.412;2022-09-27T19:12:07;11.90;99.90
25741;DHT22;13592;50.838;4.412;2022-09-27T19:17:03;11.90;99.90
25741;DHT22;13592;50.838;4.412;2022-09-27T19:19:28;12.00;99.90
25741;DHT22;13592;50.838;4.412;2022-09-27T19:22:00;12.10;99.90
25741;DHT22;13592;50.838;4.412;2022-09-27T19:24:26;12.20;99.90
25741;DHT22;13592;50.838;4.412;2022-09-27T19:26:56;12.20;99.90
25741;DHT22;13592;50.838;4.412;2022-09-27T19:29:47;12.10;99.90
25741;DHT22;13592;50.838;4.412;2022-09-27T19:32:18;12.00;99.90
25741;DHT22;13592;50.838;4.412;2022-09-27T19:40:34;11.90;99.90
25741;DHT22;13592;50.838;4.412;2022-09-27T19:43:02;11.90;99.90
25741;DHT22;13592;50.838;4.412;2022-09-27T19:45:51;12.30;99.90
25741;DHT22;13592;50.838;4.412;2022-09-27T19:51:17;12.40;99.90
25741;DHT22;13592;50.838;4.412;2022-09-27T19:53:52;12.30;99.90
25741;DHT22;13592;50.838;4.412;2022-09-27T19:56:21;12.20;99.90
25741;DHT22;13592;50.838;4.412;2022-09-27T19:58:50;12.10;99.90
25741;DHT22;13592;50.838;4.412;2022-09-27T20:01:28;12.00;99.90
25741;DHT22;13592;50.838;4.412;2022-09-27T20:07:00;12.20;99.90
25741;DHT22;13592;50.838;4.412;2022-09-27T20:12:01;11.90;99.90
25741;DHT22;13592;50.838;4.412;2022-09-27T20:22:59;11.80;99.90
25741;DHT22;13592;50.838;4.412;2022-09-27T20:25:34;11.80;99.90
25741;DHT22;13592;50.838;4.412;2022-09-27T20:28:03;11.90;99.90
25741;DHT22;13592;50.838;4.412;2022-09-27T20:30:30;11.90;99.90
25741;DHT22;13592;50.838;4.412;2022-09-27T20:33:08;11.90;99.90
25741;DHT22;13592;50.838;4.412;2022-09-27T20:36:09;11.90;99.90
25741;DHT22;13592;50.838;4.412;2022-09-27T20:38:46;11.60;99.90
25741;DHT22;13592;50.838;4.412;2022-09-27T20:41:15;11.60;99.90
25741;DHT22;13592;50.838;4.412;2022-09-27T20:43:50;11.70;99.90
25741;DHT22;13592;50.838;4.412;2022-09-27T20:46:39;11.60;99.90
25741;DHT22;13592;50.838;4.412;2022-09-27T20:54:49;11.60;99.90
25741;DHT22;13592;50.838;4.412;2022-09-27T20:57:17;11.60;99.90
25741;DHT22;13592;50.838;4.412;2022-09-27T20:59:50;11.60;99.90
25741;DHT22;13592;50.838;4.412;2022-09-27T21:02:17;11.60;99.90
25741;DHT22;13592;50.838;4.412;2022-09-27T21:04:44;11.60;99.90
25741;DHT22;13592;50.838;4.412;2022-09-27T21:07:10;11.60;99.90
25741;DHT22;13592;50.838;4.412;2022-09-27T21:09:36;11.70;99.90
25741;DHT22;13592;50.838;4.412;2022-09-27T21:14:34;11.90;99.90
25741;DHT22;13592;50.838;4.412;2022-09-27T21:17:02;12.00;99.90
25741;DHT22;13592;50.838;4.412;2022-09-27T21:19:40;12.10;99.90
25741;DHT22;13592;50.838;4.412;2022-09-27T21:22:19;12.20;99.90
25741;DHT22;13592;50.838;4.412;2022-09-27T21:27:17;12.10;99.90
25741;DHT22;13592;50.838;4.412;2022-09-27T21:29:42;12.30;99.90
25741;DHT22;13592;50.838;4.412;2022-09-27T21:32:08;12.40;99.90
25741;DHT22;13592;50.838;4.412;2022-09-27T21:34:37;12.60;99.90
25741;DHT22;13592;50.838;4.412;2022-09-27T21:37:05;12.50;99.90
25741;DHT22;13592;50.838;4.412;2022-09-27T21:39:34;12.30;99.90
25741;DHT22;13592;50.838;4.412;2022-09-27T21:42:00;12.30;99.90
25741;DHT22;13592;50.838;4.412;2022-09-27T21:44:25;12.30;99.90
25741;DHT22;13592;50.838;4.412;2022-09-27T21:46:54;12.20;99.90
25741;DHT22;13592;50.838;4.412;2022-09-27T21:49:21;12.10;99.90
25741;DHT22;13592;50.838;4.412;2022-09-27T21:54:18;12.10;99.90
25741;DHT22;13592;50.838;4.412;2022-09-27T21:56:45;12.30;99.90
25741;DHT22;13592;50.838;4.412;2022-09-27T21:59:14;12.30;99.90
25741;DHT22;13592;50.838;4.412;2022-09-27T22:01:43;12.30;99.90
25741;DHT22;13592;50.838;4.412;2022-09-27T22:04:23;12.30;99.90
25741;DHT22;13592;50.838;4.412;2022-09-27T22:06:57;12.30;99.90
25741;DHT22;13592;50.838;4.412;2022-09-27T22:09:38;12.10;99.90
25741;DHT22;13592;50.838;4.412;2022-09-27T22:12:04;12.30;99.90
25741;DHT22;13592;50.838;4.412;2022-09-27T22:14:30;12.40;99.90
25741;DHT22;13592;50.838;4.412;2022-09-27T22:16:58;12.40;99.90
25741;DHT22;13592;50.838;4.412;2022-09-27T22:19:29;12.40;99.90
25741;DHT22;13592;50.838;4.412;2022-09-27T22:22:01;12.50;99.90
25741;DHT22;13592;50.838;4.412;2022-09-27T22:24:42;12.20;99.90
25741;DHT22;13592;50.838;4.412;2022-09-27T22:27:11;12.20;99.90
25741;DHT22;13592;50.838;4.412;2022-09-27T22:29:52;12.20;99.90
25741;DHT22;13592;50.838;4.412;2022-09-27T22:32:20;12.10;99.90
25741;DHT22;13592;50.838;4.412;2022-09-27T22:34:48;12.10;99.90
25741;DHT22;13592;50.838;4.412;2022-09-27T22:37:14;12.30;99.90
25741;DHT22;13592;50.838;4.412;2022-09-27T22:39:43;12.10;99.90
25741;DHT22;13592;50.838;4.412;2022-09-27T22:42:14;12.00;99.90
25741;DHT22;13592;50.838;4.412;2022-09-27T22:47:16;12.10;99.90
25741;DHT22;13592;50.838;4.412;2022-09-27T22:49:41;11.90;99.90
25741;DHT22;13592;50.838;4.412;2022-09-27T22:52:12;11.80;99.90
25741;DHT22;13592;50.838;4.412;2022-09-27T22:57:36;11.90;99.90
25741;DHT22;13592;50.838;4.412;2022-09-27T23:02:36;11.70;99.90
25741;DHT22;13592;50.838;4.412;2022-09-27T23:05:01;11.80;99.90
25741;DHT22;13592;50.838;4.412;2022-09-27T23:16:16;12.00;99.90
25741;DHT22;13592;50.838;4.412;2022-09-27T23:21:39;11.50;99.90
25741;DHT22;13592;50.838;4.412;2022-09-27T23:24:05;11.60;99.90
25741;DHT22;13592;50.838;4.412;2022-09-27T23:29:00;11.60;99.90
25741;DHT22;13592;50.838;4.412;2022-09-27T23:31:26;11.70;99.90
25741;DHT22;13592;50.838;4.412;2022-09-27T23:34:01;11.60;99.90
25741;DHT22;13592;50.838;4.412;2022-09-27T23:36:29;11.50;99.90
25741;DHT22;13592;50.838;4.412;2022-09-27T23:39:00;11.60;99.90
25741;DHT22;13592;50.838;4.412;2022-09-27T23:41:25;11.60;99.90
25741;DHT22;13592;50.838;4.412;2022-09-27T23:43:51;11.60;99.90
25741;DHT22;13592;50.838;4.412;2022-09-27T23:51:14;11.30;99.90
25741;DHT22;13592;50.838;4.412;2022-09-27T23:56:15;11.40;99.90
25741;DHT22;13592;50.838;4.412;2022-09-27T23:58:43;11.50;99.90
